Time;durP1;ratioP1;P1;durP2;ratioP2;P2;SDS_P1;SDS_P2;PMS_P1;PMS_P2;Temp;Humidity;BMP_temperature;BMP_pressure;BME280_temperature;BME280_humidity;BME280_pressure;Samples;Min_cycle;Max_cycle;Signal;HPM_P1;HPM_P2
2021/03/28 00:00:55;;;;;;;1.25;0.73;;;;;;;10.59;43.75;100686.44;5061663;28;33043;-89
2021/03/28 00:05:12;;;;;;;2.00;0.88;;;;;;;10.46;43.57;100682.53;5079017;28;33696;-93
2021/03/28 00:08:13;;;;;;;2.33;0.73;;;;;;;10.61;43.53;100697.09;5058796;28;32936;-90
2021/03/28 00:19:55;;;;;;;;;;;;;;;;;;;;;
2021/03/28 00:24:19;;;;;;;1.55;0.77;;;;;;;11.06;40.41;100722.91;5063700;28;33566;-89
2021/03/28 00:27:30;;;;;;;2.65;0.57;;;;;;;10.83;41.07;100732.66;5143306;27;34453;-87
2021/03/28 00:34:48;;;;;;;1.67;0.77;;;;;;;10.70;40.79;100733.97;5141328;27;20080;-96
2021/03/28 00:38:26;;;;;;;;;;;;;;;;;;;;;
2021/03/28 00:42:50;;;;;;;;;;;;;;;;;;;;;
2021/03/28 00:47:15;;;;;;;0.98;0.70;;;;;;;10.90;41.52;100720.19;5236381;27;35014;-89
2021/03/28 00:50:53;;;;;;;0.47;0.40;;;;;;;11.12;40.68;100726.78;5192938;27;35158;-95
2021/03/28 00:55:06;;;;;;;;;;;;;;;;;;;;;
2021/03/28 00:58:21;;;;;;;1.30;0.57;;;;;;;11.28;39.78;100712.44;5166217;27;33151;-92
2021/03/28 01:01:39;;;;;;;1.87;0.60;;;;;;;11.09;40.87;100711.75;5146569;27;34597;-95
2021/03/28 01:05:03;;;;;;;2.37;0.88;;;;;;;11.30;39.95;100713.09;5078707;27;34187;-89
2021/03/28 01:08:35;;;;;;;2.83;0.62;;;;;;;11.17;39.67;100729.00;5112021;28;33804;-87
2021/03/28 01:12:11;;;;;;;0.82;0.52;;;;;;;11.15;39.96;100731.03;5094591;27;37552;-87
2021/03/28 01:15:39;;;;;;;1.92;0.57;;;;;;;10.94;40.66;100730.50;5144393;27;32211;-87
2021/03/28 01:19:17;;;;;;;2.92;0.47;;;;;;;11.18;40.06;100736.09;5216550;27;34823;-92
2021/03/28 01:22:40;;;;;;;1.87;0.88;;;;;;;11.14;40.24;100738.31;5238544;27;34413;-95
2021/03/28 01:25:24;;;;;;;0.77;0.50;;;;;;;10.82;40.77;100736.38;5217840;27;34097;-96
2021/03/28 01:28:46;;;;;;;1.65;0.68;;;;;;;10.99;41.49;100730.00;5259568;27;33590;-88
2021/03/28 01:32:22;;;;;;;;;;;;;;;;;;;;;
2021/03/28 01:36:03;;;;;;;1.70;0.70;;;;;;;11.17;40.41;100729.84;5152302;27;20221;-93
2021/03/28 01:39:08;;;;;;;1.25;0.60;;;;;;;11.31;40.56;100736.44;5168678;27;34135;-95
2021/03/28 01:42:23;;;;;;;1.62;0.75;;;;;;;11.17;41.27;100740.69;5230981;27;35006;-95
2021/03/28 01:46:15;;;;;;;2.17;0.93;;;;;;;10.98;42.63;100758.03;5249211;27;33304;-95
2021/03/28 01:49:29;;;;;;;;;;;;;;;10.98;42.94;100758.03;5215429;27;32765;-95
2021/03/28 01:52:55;;;;;;;2.08;1.00;;;;;;;10.64;44.58;100755.41;5203088;27;33786;-96
2021/03/28 01:56:16;;;;;;;1.62;1.27;;;;;;;10.98;44.22;100762.63;5261773;27;34519;-95
2021/03/28 01:59:39;;;;;;;1.12;0.85;;;;;;;10.91;44.55;100765.13;5276047;27;34568;-88
2021/03/28 02:03:30;;;;;;;2.60;1.08;;;;;;;11.18;44.01;100771.28;5268295;27;33190;-89
2021/03/28 02:06:47;;;;;;;2.05;1.30;;;;;;;10.95;44.91;100766.50;5219434;27;33539;-95
2021/03/28 02:10:16;;;;;;;2.40;1.20;;;;;;;10.88;45.07;100778.97;5175177;27;36312;-86
2021/03/28 02:13:44;;;;;;;4.68;1.10;;;;;;;10.70;45.64;100782.66;5162383;27;34121;-96
2021/03/28 02:17:15;;;;;;;3.20;1.10;;;;;;;10.90;44.97;100791.34;5133210;27;33108;-89
2021/03/28 02:20:41;;;;;;;5.28;1.20;;;;;;;10.91;45.13;100789.47;5199598;27;20137;-96
2021/03/28 02:24:17;;;;;;;4.37;1.10;;;;;;;10.99;44.84;100797.62;5161658;27;34394;-90
2021/03/28 02:27:52;;;;;;;3.80;1.37;;;;;;;10.91;45.61;100801.16;5139442;27;20088;-92
2021/03/28 02:31:17;;;;;;;1.60;1.17;;;;;;;10.94;45.33;100806.22;5128801;28;35405;-94
2021/03/28 02:34:42;;;;;;;1.87;1.12;;;;;;;11.10;44.61;100810.00;5095892;28;32322;-87
2021/03/28 02:38:10;;;;;;;3.22;1.52;;;;;;;10.68;45.49;100813.56;5047479;28;33631;-95
2021/03/28 02:42:21;;;;;;;3.47;1.62;;;;;;;10.77;45.30;100808.00;4962999;28;34666;-88
2021/03/28 02:45:35;;;;;;;1.23;1.12;;;;;;;10.46;46.36;100807.69;4989762;28;32629;-93
2021/03/28 02:49:04;;;;;;;3.95;1.42;;;;;;;10.44;46.50;100798.91;5050282;28;34278;-96
2021/03/28 02:52:29;;;;;;;2.87;1.73;;;;;;;9.93;47.70;100801.44;5104856;27;34323;-96
2021/03/28 02:55:38;;;;;;;3.83;1.35;;;;;;;9.97;47.64;100812.75;5166680;27;33441;-88
2021/03/28 02:59:35;;;;;;;4.32;1.62;;;;;;;9.80;47.57;100822.59;5076595;28;33631;-90
2021/03/28 03:03:28;;;;;;;6.05;1.75;;;;;;;9.87;48.13;100829.06;5100202;28;36589;-93
2021/03/28 03:07:05;;;;;;;4.78;1.42;;;;;;;9.62;48.56;100819.91;5156146;27;34090;-94
2021/03/28 03:10:08;;;;;;;3.37;1.45;;;;;;;9.62;47.56;100825.28;5190287;27;34495;-96
2021/03/28 03:13:48;;;;;;;3.95;1.65;;;;;;;9.39;47.69;100827.63;5207782;27;20075;-96
2021/03/28 03:16:36;;;;;;;3.47;1.65;;;;;;;9.51;47.18;100823.69;5205601;27;33902;-89
2021/03/28 03:20:02;;;;;;;4.22;1.45;;;;;;;9.39;47.19;100831.16;5205496;27;34079;-87
2021/03/28 03:23:50;;;;;;;;;;;;;;;;;;;;;
2021/03/28 03:27:07;;;;;;;2.92;1.65;;;;;;;9.35;46.65;100849.47;5273497;27;33614;-90
2021/03/28 03:29:58;;;;;;;2.67;1.10;;;;;;;9.16;47.15;100863.09;5271370;27;34365;-96
2021/03/28 03:33:51;;;;;;;2.83;1.33;;;;;;;9.12;47.02;100877.91;5244798;27;34996;-94
2021/03/28 03:37:10;;;;;;;3.97;1.55;;;;;;;8.98;47.41;100890.87;5183728;27;34939;-94
2021/03/28 03:40:12;;;;;;;3.33;1.25;;;;;;;9.19;46.68;100889.75;5257565;27;34116;-87
2021/03/28 03:43:57;;;;;;;1.58;1.08;;;;;;;9.22;46.66;100889.50;5266228;27;35310;-86
2021/03/28 03:52:31;;;;;;;4.12;1.60;;;;;;;8.80;47.09;100906.12;5218801;27;35039;-96
2021/03/28 03:56:05;;;;;;;2.95;1.35;;;;;;;8.79;47.24;100904.44;5280031;27;33099;-89
2021/03/28 03:59:20;;;;;;;3.45;1.23;;;;;;;8.56;48.02;100899.41;5259118;27;33480;-89
2021/03/28 04:18:04;;;;;;;4.00;1.70;;;;;;;8.52;47.81;100926.78;5321088;26;20116;-95
2021/03/28 04:26:54;;;;;;;3.85;1.25;;;;;;;8.06;48.70;100929.22;5256296;27;34189;-90
2021/03/28 04:33:56;;;;;;;1.10;1.00;;;;;;;8.44;47.64;100951.75;5163187;27;35120;-89
2021/03/28 04:52:01;;;;;;;2.70;0.77;;;;;;;8.97;46.18;100971.94;5062447;28;34126;-95
2021/03/28 04:55:47;;;;;;;2.42;1.00;;;;;;;8.80;46.47;100970.81;5060640;28;34717;-88
2021/03/28 05:15:08;;;;;;;;;;;;;;;;;;;;;
2021/03/28 05:24:28;;;;;;;;;;;;;;;;;;;;;
2021/03/28 05:28:12;;;;;;;;;;;;;;;;;;;;;
2021/03/28 05:32:35;;;;;;;2.22;1.17;;;;;;;8.78;46.34;101032.97;5134478;27;33791;-91
2021/03/28 06:00:48;;;;;;;3.50;1.17;;;;;;;9.02;45.96;101064.03;5162627;27;20817;-91
2021/03/28 06:04:26;;;;;;;;;;;;;;;;;;;;;
2021/03/28 06:08:53;;;;;;;1.75;0.62;;;;;;;9.10;45.82;101074.94;5105777;28;34162;-92
2021/03/28 06:12:41;;;;;;;2.50;1.27;;;;;;;9.11;46.17;101083.88;5207898;27;34524;-95
2021/03/28 06:29:41;;;;;;;3.22;1.12;;;;;;;9.50;44.92;101108.88;5207836;27;35261;-89
2021/03/28 06:33:33;;;;;;;;;;;;;;;;;;;;;
2021/03/28 06:53:26;;;;;;;;;;;;;;;9.30;44.16;101145.87;5156663;27;34433;-89
2021/03/28 06:57:15;;;;;;;2.03;0.52;;;;;;;9.46;43.44;101155.22;5140542;27;20030;-96
2021/03/28 07:00:48;;;;;;;;;;;;;;;;;;;;;
2021/03/28 07:04:17;;;;;;;;;;;;;;;;;;;;;
2021/03/28 07:33:00;;;;;;;1.62;0.93;;;;;;;9.71;42.71;101192.41;5135860;27;35586;-89
2021/03/28 07:41:15;;;;;;;4.18;1.17;;;;;;;10.21;42.52;101193.06;5037775;28;32751;-89
2021/03/28 07:49:50;;;;;;;;;;;;;;;;;;;;;
2021/03/28 07:53:22;;;;;;;;;;;;;;;;;;;;;
2021/03/28 08:01:05;;;;;;;1.95;0.77;;;;;;;11.29;40.74;101225.66;5047072;28;33844;-95
2021/03/28 08:08:56;;;;;;;1.75;1.12;;;;;;;11.45;37.70;101228.50;5044701;28;35869;-94
2021/03/28 08:13:15;;;;;;;3.75;1.15;;;;;;;11.83;38.29;101222.84;5098365;28;33553;-92
2021/03/28 08:18:04;;;;;;;2.30;0.73;;;;;;;11.92;37.82;101231.88;5115538;27;34525;-91
2021/03/28 08:30:52;;;;;;;3.83;0.70;;;;;;;13.89;34.74;101245.91;5256434;27;33648;-86
2021/03/28 08:35:17;;;;;;;;;;;;;;;;;;;;;
2021/03/28 08:39:21;;;;;;;;;;;;;;;;;;;;;
2021/03/28 08:49:56;;;;;;;2.05;0.70;;;;;;;14.48;30.79;101242.84;5261923;27;20073;-96
2021/03/28 08:58:16;;;;;;;3.65;0.82;;;;;;;13.49;32.23;101253.09;5165188;27;33046;-94
2021/03/28 09:02:07;;;;;;;2.35;0.90;;;;;;;13.43;31.45;101259.19;5064808;28;34134;-85
2021/03/28 09:05:40;;;;;;;3.25;0.80;;;;;;;13.14;29.20;101260.47;5095778;28;34896;-95
2021/03/28 09:09:24;;;;;;;1.15;1.05;;;;;;;12.96;30.80;101257.06;5096972;27;20485;-95
2021/03/28 09:13:36;;;;;;;;;;;;;;;;;;;;;
2021/03/28 09:17:22;;;;;;;5.35;1.10;;;;;;;12.69;32.13;101264.44;5042809;28;33896;-95
2021/03/28 09:20:56;;;;;;;1.20;0.60;;;;;;;12.34;31.69;101278.03;5074942;28;33758;-89
2021/03/28 09:24:56;;;;;;;2.83;0.88;;;;;;;12.71;32.12;101267.84;5107618;28;33154;-96
2021/03/28 09:36:40;;;;;;;1.60;0.70;;;;;;;13.36;29.44;101259.00;5156299;27;20067;-86
2021/03/28 09:40:49;;;;;;;2.05;0.80;;;;;;;12.85;29.48;101259.06;5024777;28;34122;-91
2021/03/28 09:45:18;;;;;;;2.83;0.90;;;;;;;12.72;30.42;101253.25;4984434;28;34136;-94
2021/03/28 09:59:24;;;;;;;;;;;;;;;;;;;;;
2021/03/28 10:23:49;;;;;;;;;;;;;;;12.40;27.99;101267.56;5207215;27;20110;-95
2021/03/28 10:27:48;;;;;;;;;;;;;;;;;;;;;
2021/03/28 10:32:00;;;;;;;2.22;0.60;;;;;;;13.32;26.51;101262.19;5218806;27;20105;-96
2021/03/28 10:35:59;;;;;;;2.62;0.60;;;;;;;13.37;27.21;101251.72;5176295;27;33542;-96
2021/03/28 10:39:27;;;;;;;1.98;0.90;;;;;;;13.97;26.70;101255.91;5078234;28;34739;-94
2021/03/28 10:42:58;;;;;;;2.12;0.88;;;;;;;14.61;25.68;101245.03;5109263;27;33461;-88
2021/03/28 10:47:28;;;;;;;2.47;0.85;;;;;;;14.96;25.63;101242.78;5130624;27;34653;-86
2021/03/28 10:55:39;;;;;;;2.00;0.80;;;;;;;15.44;25.74;101241.75;5084182;28;36553;-92
2021/03/28 10:59:46;;;;;;;1.83;0.90;;;;;;;15.95;22.75;101243.87;5040716;28;34096;-95
2021/03/28 11:03:57;;;;;;;2.35;0.80;;;;;;;16.27;24.32;101237.19;5055317;28;20496;-86
2021/03/28 11:17:27;;;;;;;5.03;0.80;;;;;;;16.52;21.85;101234.16;5046573;28;34334;31
2021/03/28 11:21:48;;;;;;;2.80;0.60;;;;;;;16.56;22.89;101217.22;5021014;28;34172;-94
2021/03/28 11:25:27;;;;;;;;;;;;;;;;;;;;;
2021/03/28 11:29:40;;;;;;;2.10;0.75;;;;;;;16.10;22.54;101225.62;5063360;28;36882;-96
2021/03/28 11:46:21;;;;;;;;;;;;;;;;;;;;;
2021/03/28 11:50:25;;;;;;;1.48;0.75;;;;;;;16.92;20.99;101210.09;5071652;28;32989;-87
2021/03/28 11:53:31;;;;;;;;;;;;;;;17.93;19.82;101193.53;5076834;28;34442;-86
2021/03/28 11:57:29;;;;;;;1.77;0.67;;;;;;;17.56;20.34;101191.97;4994903;28;33831;-87
2021/03/28 12:01:02;;;;;;;1.42;0.50;;;;;;;18.61;19.60;101191.97;5054040;28;34666;-95
2021/03/28 12:04:55;;;;;;;;;;;;;;;;;;;;;
2021/03/28 12:12:35;;;;;;;5.35;1.17;;;;;;;19.30;19.57;101170.84;5125147;27;35034;-93
2021/03/28 12:16:30;;;;;;;1.62;0.73;;;;;;;19.67;20.39;101157.50;5200919;27;20148;-86
2021/03/28 12:20:07;;;;;;;;;;;;;;;;;;;;;
2021/03/28 12:27:24;;;;;;;4.40;1.05;;;;;;;20.90;17.10;101159.41;5108591;27;20135;-89
2021/03/28 12:36:17;;;;;;;3.80;0.93;;;;;;;21.37;17.27;101153.53;5013632;28;35280;-94
2021/03/28 12:40:41;;;;;;;3.50;0.90;;;;;;;21.99;16.48;101158.22;4990636;28;34222;-89
2021/03/28 12:45:13;;;;;;;1.05;0.70;;;;;;;20.25;16.39;101152.13;5074944;28;35758;-96
2021/03/28 12:49:26;;;;;;;1.67;0.60;;;;;;;20.65;16.97;101153.81;4991183;28;34536;-93
2021/03/28 12:58:07;;;;;;;;;;;;;;;;;;;;;
2021/03/28 13:20:52;;;;;;;;;;;;;;;;;;;;;
2021/03/28 13:29:04;;;;;;;3.05;1.05;;;;;;;22.81;15.82;101130.28;4998891;28;33678;-96
2021/03/28 13:45:27;;;;;;;;;;;;;;;;;;;;;
2021/03/28 14:05:04;;;;;;;;;;;;;;;;;;;;;
2021/03/28 17:38:17;;;;;;;3.35;1.02;;;;;;;12.16;34.52;101141.75;5244478;26;20089;-93
